sensor_id;sensor_type;location;lat;lon;timestamp;pressure;altitude;pressure_sealevel;temperature;humidity
60920;BME280;59039;52.108;19.942;2023-07-31T00:02:18;99992.11;;;20.07;68.10
60920;BME280;59039;52.108;19.942;2023-07-31T00:04:43;99985.20;;;20.06;68.22
60920;BME280;59039;52.108;19.942;2023-07-31T00:07:08;99991.32;;;20.06;68.53
60920;BME280;59039;52.108;19.942;2023-07-31T00:09:33;99997.85;;;20.05;68.81
60920;BME280;59039;52.108;19.942;2023-07-31T00:11:59;99994.52;;;20.04;68.58
60920;BME280;59039;52.108;19.942;2023-07-31T00:14:24;99991.69;;;20.03;68.57
60920;BME280;59039;52.108;19.942;2023-07-31T00:16:50;99997.84;;;20.01;68.57
60920;BME280;59039;52.108;19.942;2023-07-31T00:19:15;99993.89;;;19.98;68.84
60920;BME280;59039;52.108;19.942;2023-07-31T00:21:40;99994.55;;;19.96;68.83
60920;BME280;59039;52.108;19.942;2023-07-31T00:24:05;99991.61;;;19.95;69.01
60920;BME280;59039;52.108;19.942;2023-07-31T00:26:30;99998.30;;;19.93;69.11
60920;BME280;59039;52.108;19.942;2023-07-31T00:28:56;99996.31;;;19.93;69.24
60920;BME280;59039;52.108;19.942;2023-07-31T00:31:21;99992.89;;;19.92;69.53
60920;BME280;59039;52.108;19.942;2023-07-31T00:33:47;99992.38;;;19.92;69.68
60920;BME280;59039;52.108;19.942;2023-07-31T00:36:12;99996.20;;;19.91;69.85
60920;BME280;59039;52.108;19.942;2023-07-31T00:38:37;99995.87;;;19.91;69.98
60920;BME280;59039;52.108;19.942;2023-07-31T00:41:02;99999.95;;;19.91;69.96
60920;BME280;59039;52.108;19.942;2023-07-31T00:43:27;100003.17;;;19.90;69.86
60920;BME280;59039;52.108;19.942;2023-07-31T00:45:53;100009.67;;;19.90;70.05
60920;BME280;59039;52.108;19.942;2023-07-31T00:48:18;100013.24;;;19.89;69.92
60920;BME280;59039;52.108;19.942;2023-07-31T00:50:43;100016.96;;;19.89;70.06
60920;BME280;59039;52.108;19.942;2023-07-31T00:53:09;100017.55;;;19.87;69.99
60920;BME280;59039;52.108;19.942;2023-07-31T00:55:34;100018.52;;;19.86;69.96
60920;BME280;59039;52.108;19.942;2023-07-31T00:58:00;100018.20;;;19.84;70.03
60920;BME280;59039;52.108;19.942;2023-07-31T01:00:25;100024.04;;;19.82;69.93
60920;BME280;59039;52.108;19.942;2023-07-31T01:02:50;100024.27;;;19.79;69.99
60920;BME280;59039;52.108;19.942;2023-07-31T01:05:19;100023.45;;;19.76;70.30
60920;BME280;59039;52.108;19.942;2023-07-31T01:08:04;100023.44;;;19.74;70.40
60920;BME280;59039;52.108;19.942;2023-07-31T01:10:50;100022.21;;;19.70;70.50
60920;BME280;59039;52.108;19.942;2023-07-31T01:13:19;100023.54;;;19.69;70.62
60920;BME280;59039;52.108;19.942;2023-07-31T01:15:44;100021.96;;;19.67;70.62
60920;BME280;59039;52.108;19.942;2023-07-31T01:18:09;100020.18;;;19.67;70.81
60920;BME280;59039;52.108;19.942;2023-07-31T01:20:35;100025.66;;;19.66;70.92
60920;BME280;59039;52.108;19.942;2023-07-31T01:23:35;100027.88;;;19.64;71.12
60920;BME280;59039;52.108;19.942;2023-07-31T01:26:12;100030.60;;;19.62;71.25
60920;BME280;59039;52.108;19.942;2023-07-31T01:28:55;100039.95;;;19.61;71.07
60920;BME280;59039;52.108;19.942;2023-07-31T01:31:24;100045.82;;;19.58;71.23
60920;BME280;59039;52.108;19.942;2023-07-31T01:33:51;100051.10;;;19.56;71.20
60920;BME280;59039;52.108;19.942;2023-07-31T01:36:17;100048.80;;;19.54;71.34
60920;BME280;59039;52.108;19.942;2023-07-31T01:38:43;100048.37;;;19.52;71.25
60920;BME280;59039;52.108;19.942;2023-07-31T01:41:08;100045.79;;;19.51;71.45
60920;BME280;59039;52.108;19.942;2023-07-31T01:43:33;100048.13;;;19.50;71.54
60920;BME280;59039;52.108;19.942;2023-07-31T01:45:58;100047.13;;;19.48;71.58
60920;BME280;59039;52.108;19.942;2023-07-31T01:48:24;100051.96;;;19.47;71.83
60920;BME280;59039;52.108;19.942;2023-07-31T01:50:49;100055.00;;;19.44;71.77
60920;BME280;59039;52.108;19.942;2023-07-31T01:53:14;100047.84;;;19.43;71.79
60920;BME280;59039;52.108;19.942;2023-07-31T01:55:40;100047.28;;;19.42;72.00
60920;BME280;59039;52.108;19.942;2023-07-31T01:58:05;100040.34;;;19.40;71.79
60920;BME280;59039;52.108;19.942;2023-07-31T02:00:30;100039.13;;;19.40;71.83
60920;BME280;59039;52.108;19.942;2023-07-31T02:02:55;100042.05;;;19.40;72.01
60920;BME280;59039;52.108;19.942;2023-07-31T02:05:20;100044.22;;;19.39;71.79
60920;BME280;59039;52.108;19.942;2023-07-31T02:07:46;100037.05;;;19.39;71.91
60920;BME280;59039;52.108;19.942;2023-07-31T02:10:11;100042.14;;;19.38;71.87
60920;BME280;59039;52.108;19.942;2023-07-31T02:12:36;100044.60;;;19.37;72.06
60920;BME280;59039;52.108;19.942;2023-07-31T02:15:01;100040.41;;;19.36;72.16
60920;BME280;59039;52.108;19.942;2023-07-31T02:17:27;100043.77;;;19.34;72.27
60920;BME280;59039;52.108;19.942;2023-07-31T02:19:52;100043.61;;;19.33;72.35
60920;BME280;59039;52.108;19.942;2023-07-31T02:22:17;100044.80;;;19.31;72.26
60920;BME280;59039;52.108;19.942;2023-07-31T02:24:43;100049.49;;;19.28;72.40
60920;BME280;59039;52.108;19.942;2023-07-31T02:27:08;100046.92;;;19.25;72.40
60920;BME280;59039;52.108;19.942;2023-07-31T02:29:33;100053.80;;;19.24;72.40
60920;BME280;59039;52.108;19.942;2023-07-31T02:31:58;100053.17;;;19.22;72.24
60920;BME280;59039;52.108;19.942;2023-07-31T02:34:23;100056.62;;;19.20;72.08
60920;BME280;59039;52.108;19.942;2023-07-31T02:36:49;100061.59;;;19.19;71.91
60920;BME280;59039;52.108;19.942;2023-07-31T02:39:14;100059.65;;;19.17;71.80
60920;BME280;59039;52.108;19.942;2023-07-31T02:41:39;100061.05;;;19.16;71.64
60920;BME280;59039;52.108;19.942;2023-07-31T02:44:04;100060.70;;;19.16;71.68
60920;BME280;59039;52.108;19.942;2023-07-31T02:46:29;100059.52;;;19.15;71.52
60920;BME280;59039;52.108;19.942;2023-07-31T02:48:55;100063.01;;;19.14;71.58
60920;BME280;59039;52.108;19.942;2023-07-31T02:51:20;100058.19;;;19.12;71.60
60920;BME280;59039;52.108;19.942;2023-07-31T02:53:45;100059.94;;;19.10;71.63
60920;BME280;59039;52.108;19.942;2023-07-31T02:56:10;100062.27;;;19.08;71.54
60920;BME280;59039;52.108;19.942;2023-07-31T02:58:36;100063.90;;;19.06;71.50
60920;BME280;59039;52.108;19.942;2023-07-31T03:01:01;100066.83;;;19.04;71.41
60920;BME280;59039;52.108;19.942;2023-07-31T03:03:26;100066.94;;;19.02;71.30
60920;BME280;59039;52.108;19.942;2023-07-31T03:05:51;100063.33;;;19.01;71.23
60920;BME280;59039;52.108;19.942;2023-07-31T03:08:16;100062.16;;;18.98;70.95
60920;BME280;59039;52.108;19.942;2023-07-31T03:10:42;100061.61;;;18.96;70.74
60920;BME280;59039;52.108;19.942;2023-07-31T03:13:07;100063.32;;;18.94;70.75
60920;BME280;59039;52.108;19.942;2023-07-31T03:15:32;100068.83;;;18.93;70.51
60920;BME280;59039;52.108;19.942;2023-07-31T03:17:58;100066.08;;;18.91;70.50
60920;BME280;59039;52.108;19.942;2023-07-31T03:20:23;100068.23;;;18.90;70.37
60920;BME280;59039;52.108;19.942;2023-07-31T03:22:48;100070.66;;;18.90;70.45
60920;BME280;59039;52.108;19.942;2023-07-31T03:25:13;100076.84;;;18.90;70.29
60920;BME280;59039;52.108;19.942;2023-07-31T03:27:38;100079.30;;;18.90;70.20
60920;BME280;59039;52.108;19.942;2023-07-31T03:30:04;100078.54;;;18.90;70.08
60920;BME280;59039;52.108;19.942;2023-07-31T03:32:29;100076.84;;;18.91;70.30
60920;BME280;59039;52.108;19.942;2023-07-31T03:34:55;100077.44;;;18.90;70.06
60920;BME280;59039;52.108;19.942;2023-07-31T03:37:20;100080.02;;;18.90;69.94
60920;BME280;59039;52.108;19.942;2023-07-31T03:39:45;100088.79;;;18.89;69.76
60920;BME280;59039;52.108;19.942;2023-07-31T03:42:10;100089.98;;;18.87;69.84
60920;BME280;59039;52.108;19.942;2023-07-31T03:44:35;100091.81;;;18.87;69.96
60920;BME280;59039;52.108;19.942;2023-07-31T03:47:01;100096.61;;;18.87;69.81
60920;BME280;59039;52.108;19.942;2023-07-31T03:49:26;100093.55;;;18.87;70.17
60920;BME280;59039;52.108;19.942;2023-07-31T03:51:51;100092.20;;;18.86;70.01
60920;BME280;59039;52.108;19.942;2023-07-31T03:54:16;100099.94;;;18.86;70.14
60920;BME280;59039;52.108;19.942;2023-07-31T03:56:42;100100.80;;;18.85;70.06
60920;BME280;59039;52.108;19.942;2023-07-31T03:59:07;100102.75;;;18.84;70.12
60920;BME280;59039;52.108;19.942;2023-07-31T04:01:32;100104.07;;;18.83;70.12
60920;BME280;59039;52.108;19.942;2023-07-31T04:03:57;100108.78;;;18.80;70.25
60920;BME280;59039;52.108;19.942;2023-07-31T04:06:22;100105.35;;;18.80;70.06
60920;BME280;59039;52.108;19.942;2023-07-31T04:08:48;100104.66;;;18.80;69.99
60920;BME280;59039;52.108;19.942;2023-07-31T04:11:13;100103.98;;;18.79;70.03
60920;BME280;59039;52.108;19.942;2023-07-31T04:13:38;100100.27;;;18.78;69.72
60920;BME280;59039;52.108;19.942;2023-07-31T04:16:04;100108.98;;;18.77;69.57
60920;BME280;59039;52.108;19.942;2023-07-31T04:18:29;100108.27;;;18.77;69.57
60920;BME280;59039;52.108;19.942;2023-07-31T04:20:54;100110.30;;;18.77;69.56
60920;BME280;59039;52.108;19.942;2023-07-31T04:23:20;100110.29;;;18.76;69.41
60920;BME280;59039;52.108;19.942;2023-07-31T04:25:45;100110.37;;;18.75;69.39
60920;BME280;59039;52.108;19.942;2023-07-31T04:28:10;100108.70;;;18.75;69.43
60920;BME280;59039;52.108;19.942;2023-07-31T04:30:35;100108.03;;;18.75;69.51
60920;BME280;59039;52.108;19.942;2023-07-31T04:33:00;100111.89;;;18.75;69.62
60920;BME280;59039;52.108;19.942;2023-07-31T04:35:26;100108.64;;;18.74;69.58
60920;BME280;59039;52.108;19.942;2023-07-31T04:37:51;100112.79;;;18.75;69.62
60920;BME280;59039;52.108;19.942;2023-07-31T04:40:16;100120.05;;;18.75;69.49
60920;BME280;59039;52.108;19.942;2023-07-31T04:42:41;100116.34;;;18.76;69.22
60920;BME280;59039;52.108;19.942;2023-07-31T04:45:08;100116.39;;;18.75;69.18
60920;BME280;59039;52.108;19.942;2023-07-31T04:47:34;100117.06;;;18.76;69.13
60920;BME280;59039;52.108;19.942;2023-07-31T04:49:59;100124.27;;;18.76;68.97
60920;BME280;59039;52.108;19.942;2023-07-31T04:52:25;100128.55;;;18.76;68.81
60920;BME280;59039;52.108;19.942;2023-07-31T04:54:50;100125.34;;;18.77;68.91
60920;BME280;59039;52.108;19.942;2023-07-31T04:57:15;100123.90;;;18.78;68.91
60920;BME280;59039;52.108;19.942;2023-07-31T04:59:40;100123.30;;;18.79;68.96
60920;BME280;59039;52.108;19.942;2023-07-31T05:02:08;100123.39;;;18.80;68.85
60920;BME280;59039;52.108;19.942;2023-07-31T05:04:33;100129.53;;;18.79;68.85
60920;BME280;59039;52.108;19.942;2023-07-31T05:06:58;100134.27;;;18.79;68.93
60920;BME280;59039;52.108;19.942;2023-07-31T05:09:23;100135.23;;;18.80;69.16
60920;BME280;59039;52.108;19.942;2023-07-31T05:11:49;100134.52;;;18.81;68.99
60920;BME280;59039;52.108;19.942;2023-07-31T05:14:14;100138.08;;;18.82;69.07
60920;BME280;59039;52.108;19.942;2023-07-31T05:16:39;100138.34;;;18.83;69.07
60920;BME280;59039;52.108;19.942;2023-07-31T05:19:04;100137.36;;;18.83;68.97
60920;BME280;59039;52.108;19.942;2023-07-31T05:21:29;100134.17;;;18.84;68.93
60920;BME280;59039;52.108;19.942;2023-07-31T05:23:55;100131.55;;;18.84;68.98
60920;BME280;59039;52.108;19.942;2023-07-31T05:26:20;100135.66;;;18.85;68.94
60920;BME280;59039;52.108;19.942;2023-07-31T05:28:45;100142.35;;;18.85;68.93
60920;BME280;59039;52.108;19.942;2023-07-31T05:31:10;100141.71;;;18.86;68.91
60920;BME280;59039;52.108;19.942;2023-07-31T05:33:35;100142.09;;;18.86;68.93
60920;BME280;59039;52.108;19.942;2023-07-31T05:36:01;100141.16;;;18.86;69.06
60920;BME280;59039;52.108;19.942;2023-07-31T05:38:26;100143.88;;;18.86;68.95
60920;BME280;59039;52.108;19.942;2023-07-31T05:40:51;100144.41;;;18.88;69.17
60920;BME280;59039;52.108;19.942;2023-07-31T05:43:16;100144.03;;;18.89;68.97
60920;BME280;59039;52.108;19.942;2023-07-31T05:45:42;100147.72;;;18.92;69.12
60920;BME280;59039;52.108;19.942;2023-07-31T05:48:07;100145.08;;;18.93;69.22
60920;BME280;59039;52.108;19.942;2023-07-31T05:50:33;100147.48;;;18.96;68.83
60920;BME280;59039;52.108;19.942;2023-07-31T05:52:58;100147.65;;;18.99;68.90
60920;BME280;59039;52.108;19.942;2023-07-31T05:55:24;100151.74;;;19.03;69.09
60920;BME280;59039;52.108;19.942;2023-07-31T05:57:49;100151.11;;;19.07;69.23
60920;BME280;59039;52.108;19.942;2023-07-31T06:00:15;100149.67;;;19.12;68.97
60920;BME280;59039;52.108;19.942;2023-07-31T06:02:40;100146.70;;;19.16;68.96
60920;BME280;59039;52.108;19.942;2023-07-31T06:05:06;100150.74;;;19.21;68.89
60920;BME280;59039;52.108;19.942;2023-07-31T06:07:32;100151.60;;;19.28;68.95
60920;BME280;59039;52.108;19.942;2023-07-31T06:09:57;100151.80;;;19.34;68.63
60920;BME280;59039;52.108;19.942;2023-07-31T06:12:22;100149.98;;;19.40;68.60
60920;BME280;59039;52.108;19.942;2023-07-31T06:14:47;100152.02;;;19.48;68.33
60920;BME280;59039;52.108;19.942;2023-07-31T06:17:12;100160.55;;;19.58;68.51
60920;BME280;59039;52.108;19.942;2023-07-31T06:19:38;100153.16;;;19.66;68.11
60920;BME280;59039;52.108;19.942;2023-07-31T06:22:03;100155.09;;;19.76;68.29
60920;BME280;59039;52.108;19.942;2023-07-31T06:24:28;100157.04;;;19.89;68.24
60920;BME280;59039;52.108;19.942;2023-07-31T06:26:53;100157.70;;;20.03;68.06
60920;BME280;59039;52.108;19.942;2023-07-31T06:29:19;100155.22;;;20.18;67.94
60920;BME280;59039;52.108;19.942;2023-07-31T06:31:44;100159.48;;;20.37;67.87
60920;BME280;59039;52.108;19.942;2023-07-31T06:34:09;100158.98;;;20.54;67.50
60920;BME280;59039;52.108;19.942;2023-07-31T06:36:34;100161.01;;;20.71;67.01
60920;BME280;59039;52.108;19.942;2023-07-31T06:39:00;100156.16;;;20.88;66.17
60920;BME280;59039;52.108;19.942;2023-07-31T06:41:25;100155.04;;;21.02;65.86
60920;BME280;59039;52.108;19.942;2023-07-31T06:43:50;100155.52;;;21.14;65.14
60920;BME280;59039;52.108;19.942;2023-07-31T06:46:15;100157.02;;;21.25;64.75
60920;BME280;59039;52.108;19.942;2023-07-31T06:48:40;100152.39;;;21.34;64.39
60920;BME280;59039;52.108;19.942;2023-07-31T06:51:06;100149.39;;;21.40;64.43
60920;BME280;59039;52.108;19.942;2023-07-31T06:53:31;100152.27;;;21.46;64.16
60920;BME280;59039;52.108;19.942;2023-07-31T06:55:56;100147.91;;;21.50;63.26
60920;BME280;59039;52.108;19.942;2023-07-31T06:58:21;100150.35;;;21.53;63.23
60920;BME280;59039;52.108;19.942;2023-07-31T07:00:46;100149.41;;;21.55;62.88
60920;BME280;59039;52.108;19.942;2023-07-31T07:03:12;100151.28;;;21.56;62.44
60920;BME280;59039;52.108;19.942;2023-07-31T07:05:37;100157.30;;;21.60;62.62
60920;BME280;59039;52.108;19.942;2023-07-31T07:08:02;100156.23;;;21.63;62.21
60920;BME280;59039;52.108;19.942;2023-07-31T07:10:27;100157.15;;;21.68;62.25
60920;BME280;59039;52.108;19.942;2023-07-31T07:12:53;100156.65;;;21.73;62.27
60920;BME280;59039;52.108;19.942;2023-07-31T07:15:19;100156.42;;;21.77;62.22
60920;BME280;59039;52.108;19.942;2023-07-31T07:17:44;100156.83;;;21.81;62.47
60920;BME280;59039;52.108;19.942;2023-07-31T07:20:09;100157.56;;;21.87;62.48
60920;BME280;59039;52.108;19.942;2023-07-31T07:22:35;100158.45;;;21.92;61.96
60920;BME280;59039;52.108;19.942;2023-07-31T07:25:00;100154.38;;;21.97;61.50
60920;BME280;59039;52.108;19.942;2023-07-31T07:27:25;100157.58;;;22.03;61.55
60920;BME280;59039;52.108;19.942;2023-07-31T07:29:51;100156.06;;;22.06;61.11
60920;BME280;59039;52.108;19.942;2023-07-31T07:32:16;100155.48;;;22.09;60.81
60920;BME280;59039;52.108;19.942;2023-07-31T07:34:41;100153.80;;;22.10;60.65
60920;BME280;59039;52.108;19.942;2023-07-31T07:37:06;100153.05;;;22.12;60.82
60920;BME280;59039;52.108;19.942;2023-07-31T07:39:32;100154.02;;;22.13;60.56
60920;BME280;59039;52.108;19.942;2023-07-31T07:41:57;100153.48;;;22.14;60.73
60920;BME280;59039;52.108;19.942;2023-07-31T07:44:22;100156.64;;;22.16;60.24
60920;BME280;59039;52.108;19.942;2023-07-31T07:46:47;100157.25;;;22.18;59.74
60920;BME280;59039;52.108;19.942;2023-07-31T07:49:12;100155.91;;;22.20;59.52
60920;BME280;59039;52.108;19.942;2023-07-31T07:51:38;100154.48;;;22.23;59.39
60920;BME280;59039;52.108;19.942;2023-07-31T07:54:03;100147.93;;;22.27;58.97
60920;BME280;59039;52.108;19.942;2023-07-31T07:56:28;100154.97;;;22.32;58.58
60920;BME280;59039;52.108;19.942;2023-07-31T07:58:54;100154.98;;;22.37;58.77
60920;BME280;59039;52.108;19.942;2023-07-31T08:01:19;100150.67;;;22.42;58.20
60920;BME280;59039;52.108;19.942;2023-07-31T08:03:46;100154.77;;;22.48;57.63
60920;BME280;59039;52.108;19.942;2023-07-31T08:06:12;100158.05;;;22.54;56.63
60920;BME280;59039;52.108;19.942;2023-07-31T08:08:37;100161.20;;;22.61;57.42
60920;BME280;59039;52.108;19.942;2023-07-31T08:11:03;100160.92;;;22.67;56.61
60920;BME280;59039;52.108;19.942;2023-07-31T08:13:28;100160.44;;;22.72;56.56
60920;BME280;59039;52.108;19.942;2023-07-31T08:15:54;100159.97;;;22.79;55.98
60920;BME280;59039;52.108;19.942;2023-07-31T08:18:19;100166.30;;;22.84;55.31
60920;BME280;59039;52.108;19.942;2023-07-31T08:20:44;100165.52;;;22.89;55.31
60920;BME280;59039;52.108;19.942;2023-07-31T08:23:10;100165.96;;;22.94;54.97
60920;BME280;59039;52.108;19.942;2023-07-31T08:25:36;100165.59;;;22.97;54.70
60920;BME280;59039;52.108;19.942;2023-07-31T08:28:02;100165.36;;;23.00;54.08
60920;BME280;59039;52.108;19.942;2023-07-31T08:30:27;100170.44;;;23.02;54.40
60920;BME280;59039;52.108;19.942;2023-07-31T08:32:52;100169.30;;;23.03;53.38
60920;BME280;59039;52.108;19.942;2023-07-31T08:35:17;100162.94;;;23.04;52.66
60920;BME280;59039;52.108;19.942;2023-07-31T08:37:43;100166.79;;;23.05;52.42
60920;BME280;59039;52.108;19.942;2023-07-31T08:40:08;100166.17;;;23.04;51.63
60920;BME280;59039;52.108;19.942;2023-07-31T08:42:34;100164.89;;;23.04;51.10
60920;BME280;59039;52.108;19.942;2023-07-31T08:44:59;100168.80;;;23.03;50.51
60920;BME280;59039;52.108;19.942;2023-07-31T08:47:25;100167.58;;;23.03;50.97
60920;BME280;59039;52.108;19.942;2023-07-31T08:49:51;100168.05;;;23.02;50.36
60920;BME280;59039;52.108;19.942;2023-07-31T08:52:17;100159.71;;;23.01;50.66
60920;BME280;59039;52.108;19.942;2023-07-31T08:54:42;100164.15;;;23.01;50.81
60920;BME280;59039;52.108;19.942;2023-07-31T08:57:09;100159.13;;;23.00;51.04
60920;BME280;59039;52.108;19.942;2023-07-31T08:59:35;100156.52;;;23.00;50.92
60920;BME280;59039;52.108;19.942;2023-07-31T09:02:05;100153.08;;;23.00;51.16
60920;BME280;59039;52.108;19.942;2023-07-31T09:04:32;100152.06;;;23.00;51.00
60920;BME280;59039;52.108;19.942;2023-07-31T09:07:01;100148.73;;;23.00;50.57
60920;BME280;59039;52.108;19.942;2023-07-31T09:09:26;100145.45;;;23.00;50.20
60920;BME280;59039;52.108;19.942;2023-07-31T09:11:52;100146.90;;;23.00;50.39
60920;BME280;59039;52.108;19.942;2023-07-31T09:14:18;100143.09;;;23.01;50.27
60920;BME280;59039;52.108;19.942;2023-07-31T09:16:54;100146.33;;;23.01;50.30
60920;BME280;59039;52.108;19.942;2023-07-31T09:21:51;100144.99;;;23.02;50.37
60920;BME280;59039;52.108;19.942;2023-07-31T09:24:31;100137.36;;;23.02;50.32
60920;BME280;59039;52.108;19.942;2023-07-31T09:26:58;100138.02;;;23.02;49.78
60920;BME280;59039;52.108;19.942;2023-07-31T09:29:23;100139.41;;;23.02;50.14
60920;BME280;59039;52.108;19.942;2023-07-31T09:31:48;100141.16;;;23.01;49.89
60920;BME280;59039;52.108;19.942;2023-07-31T09:34:13;100139.09;;;23.00;49.92
60920;BME280;59039;52.108;19.942;2023-07-31T09:36:47;100134.44;;;22.99;49.49
60920;BME280;59039;52.108;19.942;2023-07-31T09:39:14;100137.70;;;22.97;48.99
60920;BME280;59039;52.108;19.942;2023-07-31T09:41:43;100137.73;;;22.96;49.15
60920;BME280;59039;52.108;19.942;2023-07-31T09:44:08;100141.69;;;22.94;49.48
60920;BME280;59039;52.108;19.942;2023-07-31T09:46:37;100135.36;;;22.93;49.96
60920;BME280;59039;52.108;19.942;2023-07-31T09:49:09;100136.44;;;22.92;49.87
60920;BME280;59039;52.108;19.942;2023-07-31T09:51:36;100137.08;;;22.90;49.91
60920;BME280;59039;52.108;19.942;2023-07-31T09:54:01;100132.23;;;22.89;49.92
60920;BME280;59039;52.108;19.942;2023-07-31T09:56:26;100135.58;;;22.88;49.11
60920;BME280;59039;52.108;19.942;2023-07-31T09:58:53;100132.98;;;22.86;49.01
60920;BME280;59039;52.108;19.942;2023-07-31T10:01:19;100136.60;;;22.84;48.83
60920;BME280;59039;52.108;19.942;2023-07-31T10:03:45;100134.40;;;22.83;49.51
60920;BME280;59039;52.108;19.942;2023-07-31T10:06:11;100137.98;;;22.82;49.23
60920;BME280;59039;52.108;19.942;2023-07-31T10:08:37;100134.11;;;22.82;49.76
60920;BME280;59039;52.108;19.942;2023-07-31T10:11:04;100128.96;;;22.82;50.01
60920;BME280;59039;52.108;19.942;2023-07-31T10:13:31;100129.36;;;22.83;49.84
60920;BME280;59039;52.108;19.942;2023-07-31T10:15:59;100129.36;;;22.83;50.04
60920;BME280;59039;52.108;19.942;2023-07-31T10:18:25;100119.95;;;22.83;50.26
60920;BME280;59039;52.108;19.942;2023-07-31T10:20:51;100126.65;;;22.83;50.38
60920;BME280;59039;52.108;19.942;2023-07-31T10:23:17;100126.48;;;22.83;50.80
60920;BME280;59039;52.108;19.942;2023-07-31T10:25:43;100124.09;;;22.83;50.27
60920;BME280;59039;52.108;19.942;2023-07-31T10:28:10;100123.00;;;22.84;50.85
60920;BME280;59039;52.108;19.942;2023-07-31T10:30:37;100114.98;;;22.84;50.91
60920;BME280;59039;52.108;19.942;2023-07-31T10:33:03;100114.09;;;22.86;50.84
60920;BME280;59039;52.108;19.942;2023-07-31T10:35:28;100113.88;;;22.89;50.76
60920;BME280;59039;52.108;19.942;2023-07-31T10:37:53;100118.39;;;22.91;50.62
60920;BME280;59039;52.108;19.942;2023-07-31T10:40:23;100115.82;;;22.92;50.14
60920;BME280;59039;52.108;19.942;2023-07-31T10:45:30;100110.54;;;22.96;50.06
60920;BME280;59039;52.108;19.942;2023-07-31T10:48:06;100111.49;;;22.97;49.42
60920;BME280;59039;52.108;19.942;2023-07-31T10:50:36;100107.89;;;22.98;49.48
60920;BME280;59039;52.108;19.942;2023-07-31T10:53:02;100106.45;;;22.99;49.28
60920;BME280;59039;52.108;19.942;2023-07-31T10:57:55;100106.09;;;23.00;49.24
60920;BME280;59039;52.108;19.942;2023-07-31T11:03:01;100103.91;;;23.02;49.21
60920;BME280;59039;52.108;19.942;2023-07-31T11:05:43;100099.85;;;23.03;48.81
60920;BME280;59039;52.108;19.942;2023-07-31T11:08:34;100097.95;;;23.02;49.29
60920;BME280;59039;52.108;19.942;2023-07-31T11:13:30;100099.27;;;23.02;48.58
60920;BME280;59039;52.108;19.942;2023-07-31T11:15:56;100101.41;;;23.01;48.85
60920;BME280;59039;52.108;19.942;2023-07-31T11:18:21;100093.75;;;23.01;48.94
60920;BME280;59039;52.108;19.942;2023-07-31T11:20:47;100097.39;;;23.00;49.24
60920;BME280;59039;52.108;19.942;2023-07-31T11:23:12;100100.27;;;23.00;49.07
60920;BME280;59039;52.108;19.942;2023-07-31T11:25:39;100098.75;;;23.00;49.01
60920;BME280;59039;52.108;19.942;2023-07-31T11:28:15;100100.16;;;22.99;49.10
60920;BME280;59039;52.108;19.942;2023-07-31T11:30:41;100100.77;;;22.98;49.05
60920;BME280;59039;52.108;19.942;2023-07-31T11:33:09;100098.67;;;22.99;49.01
60920;BME280;59039;52.108;19.942;2023-07-31T11:35:45;100102.08;;;22.99;49.42
60920;BME280;59039;52.108;19.942;2023-07-31T11:40:47;100098.02;;;23.01;49.04
60920;BME280;59039;52.108;19.942;2023-07-31T11:43:13;100096.79;;;23.00;49.34
60920;BME280;59039;52.108;19.942;2023-07-31T11:45:39;100095.52;;;23.01;49.45
60920;BME280;59039;52.108;19.942;2023-07-31T11:48:04;100095.10;;;23.01;49.29
60920;BME280;59039;52.108;19.942;2023-07-31T11:50:33;100090.96;;;23.02;48.93
60920;BME280;59039;52.108;19.942;2023-07-31T11:53:00;100088.92;;;23.01;48.56
60920;BME280;59039;52.108;19.942;2023-07-31T11:55:28;100085.82;;;23.01;49.05
60920;BME280;59039;52.108;19.942;2023-07-31T11:57:56;100087.55;;;23.01;49.23
60920;BME280;59039;52.108;19.942;2023-07-31T12:00:22;100078.15;;;23.02;48.78
60920;BME280;59039;52.108;19.942;2023-07-31T12:02:48;100074.45;;;23.02;49.02
60920;BME280;59039;52.108;19.942;2023-07-31T12:05:13;100082.16;;;23.03;48.68
60920;BME280;59039;52.108;19.942;2023-07-31T12:07:45;100085.16;;;23.04;48.44
60920;BME280;59039;52.108;19.942;2023-07-31T12:10:10;100081.64;;;23.05;48.67
60920;BME280;59039;52.108;19.942;2023-07-31T12:12:36;100073.05;;;23.05;48.05
60920;BME280;59039;52.108;19.942;2023-07-31T12:15:01;100072.23;;;23.06;47.88
60920;BME280;59039;52.108;19.942;2023-07-31T12:17:26;100074.62;;;23.06;47.30
60920;BME280;59039;52.108;19.942;2023-07-31T12:19:52;100071.64;;;23.06;47.04
60920;BME280;59039;52.108;19.942;2023-07-31T12:22:17;100069.13;;;23.05;47.18
60920;BME280;59039;52.108;19.942;2023-07-31T12:24:43;100068.58;;;23.06;47.38
60920;BME280;59039;52.108;19.942;2023-07-31T12:27:11;100067.02;;;23.05;47.32
60920;BME280;59039;52.108;19.942;2023-07-31T12:29:36;100060.84;;;23.04;47.13
60920;BME280;59039;52.108;19.942;2023-07-31T12:32:01;100057.72;;;23.03;47.43
60920;BME280;59039;52.108;19.942;2023-07-31T12:34:26;100054.71;;;23.02;47.13
60920;BME280;59039;52.108;19.942;2023-07-31T12:36:53;100053.61;;;23.01;47.60
60920;BME280;59039;52.108;19.942;2023-07-31T12:39:18;100047.98;;;22.99;48.03
60920;BME280;59039;52.108;19.942;2023-07-31T12:41:44;100046.83;;;23.00;47.99
60920;BME280;59039;52.108;19.942;2023-07-31T12:44:09;100041.97;;;22.98;47.70
60920;BME280;59039;52.108;19.942;2023-07-31T12:46:34;100042.48;;;22.98;47.22
60920;BME280;59039;52.108;19.942;2023-07-31T12:48:59;100038.42;;;22.97;48.08
60920;BME280;59039;52.108;19.942;2023-07-31T12:51:24;100042.33;;;22.95;47.98